createdAt,value
2023-01-26T00:00:53.593Z,2.12
2023-01-26T00:01:53.570Z,2.01
2023-01-26T00:02:53.695Z,2.04
2023-01-26T00:03:53.600Z,2.01
2023-01-26T00:04:53.517Z,2.08
2023-01-26T00:05:53.497Z,2.10
2023-01-26T00:06:53.481Z,2.05
2023-01-26T00:07:53.462Z,2.15
2023-01-26T00:08:53.436Z,2.16
2023-01-26T00:09:53.422Z,2.10
2023-01-26T00:10:53.397Z,2.14
2023-01-26T00:11:53.426Z,2.15
2023-01-26T00:12:54.085Z,2.21
2023-01-26T00:13:53.338Z,2.19
2023-01-26T00:14:53.320Z,2.22
2023-01-26T00:15:53.323Z,2.22
2023-01-26T00:16:53.275Z,2.25
2023-01-26T00:17:53.355Z,2.22
2023-01-26T00:18:53.233Z,2.23
2023-01-26T00:19:53.216Z,2.21
2023-01-26T00:20:53.198Z,2.18
2023-01-26T00:21:53.173Z,2.21
2023-01-26T00:22:53.162Z,2.18
2023-01-26T00:23:53.233Z,2.21
2023-01-26T00:24:53.112Z,2.28
2023-01-26T00:25:53.093Z,2.21
2023-01-26T00:26:53.075Z,2.15
2023-01-26T00:27:53.057Z,2.12
2023-01-26T00:28:53.040Z,2.10
2023-01-26T00:29:53.012Z,2.14
2023-01-26T00:30:53.082Z,2.16
2023-01-26T00:31:53.080Z,2.19
2023-01-26T00:32:52.956Z,2.21
2023-01-26T00:33:52.944Z,2.19
2023-01-26T00:34:52.918Z,2.23
2023-01-26T00:35:52.903Z,2.21
2023-01-26T00:36:52.875Z,2.21
2023-01-26T00:37:52.865Z,2.21
2023-01-26T00:38:52.832Z,2.21
2023-01-26T00:39:52.813Z,2.19
2023-01-26T00:40:52.793Z,2.19
2023-01-26T00:41:52.774Z,2.19
2023-01-26T00:42:52.762Z,2.18
2023-01-26T00:43:52.742Z,2.14
2023-01-26T00:44:52.714Z,2.15
2023-01-26T00:45:52.696Z,2.08
2023-01-26T00:46:52.705Z,2.05
2023-01-26T00:47:52.654Z,2.08
2023-01-26T00:48:52.650Z,2.14
2023-01-26T00:49:52.620Z,2.16
2023-01-26T00:50:52.604Z,2.14
2023-01-26T00:51:52.574Z,2.18
2023-01-26T00:52:52.554Z,2.25
2023-01-26T00:53:52.534Z,2.10
2023-01-26T00:54:52.513Z,2.15
2023-01-26T00:55:52.495Z,2.12
2023-01-26T00:56:52.486Z,2.12
2023-01-26T00:57:52.470Z,2.00
2023-01-26T00:58:52.447Z,1.97
2023-01-26T00:59:52.422Z,1.97
2023-01-26T01:00:52.406Z,2.00
2023-01-26T01:01:52.393Z,2.04
2023-01-26T01:02:52.362Z,2.01
2023-01-26T01:03:52.341Z,2.08
2023-01-26T01:04:52.317Z,2.12
2023-01-26T01:05:52.294Z,2.05
2023-01-26T01:06:52.281Z,2.00
2023-01-26T01:07:52.276Z,2.03
2023-01-26T01:08:52.238Z,2.14
2023-01-26T01:09:52.215Z,2.10
2023-01-26T01:10:52.195Z,2.05
2023-01-26T01:11:52.186Z,2.08
2023-01-26T01:12:52.153Z,2.05
2023-01-26T01:13:52.139Z,2.18
2023-01-26T01:14:52.115Z,2.14
2023-01-26T01:15:52.144Z,2.08
2023-01-26T01:16:52.080Z,2.18
2023-01-26T01:17:52.067Z,2.15
2023-01-26T01:18:52.034Z,2.16
2023-01-26T01:19:52.017Z,2.14
2023-01-26T01:20:52.016Z,2.21
2023-01-26T01:21:52.001Z,2.23
2023-01-26T01:22:51.959Z,2.14
2023-01-26T01:23:51.965Z,2.16
2023-01-26T01:24:51.923Z,2.21
2023-01-26T01:25:51.897Z,2.12
2023-01-26T01:26:51.882Z,2.15
2023-01-26T01:27:51.855Z,2.15
2023-01-26T01:28:51.837Z,2.15
2023-01-26T01:29:51.814Z,2.08
2023-01-26T01:30:51.957Z,2.12
2023-01-26T01:31:51.862Z,2.05
2023-01-26T01:32:51.862Z,2.16
2023-01-26T01:33:51.739Z,2.03
2023-01-26T01:34:51.721Z,2.03
2023-01-26T01:35:51.710Z,1.97
2023-01-26T01:38:27.117Z,1.84
2023-01-26T01:39:27.123Z,1.89
2023-01-26T01:41:34.117Z,1.95
2023-01-26T01:42:34.378Z,1.86
2023-01-26T01:44:40.644Z,1.92
2023-01-26T01:45:40.094Z,2.01
2023-01-26T01:46:40.413Z,2.00
2023-01-26T01:47:40.045Z,2.00
2023-01-26T01:48:40.010Z,2.03
2023-01-26T01:49:40.028Z,2.07
2023-01-26T01:50:40.110Z,2.15
2023-01-26T01:51:40.124Z,2.00
2023-01-26T01:52:40.040Z,1.98
2023-01-26T01:53:39.915Z,2.14
2023-01-26T01:54:40.248Z,2.16
2023-01-26T01:55:40.234Z,2.04
2023-01-26T01:56:40.129Z,2.14
2023-01-26T01:57:40.075Z,2.04
2023-01-26T01:58:39.911Z,2.12
2023-01-26T01:59:39.921Z,2.14
2023-01-26T02:00:39.853Z,2.05
2023-01-26T02:01:39.914Z,2.12
2023-01-26T02:02:39.838Z,2.04
2023-01-26T02:03:39.929Z,2.00
2023-01-26T02:04:39.719Z,2.12
2023-01-26T02:05:40.070Z,2.03
2023-01-26T02:06:40.028Z,2.08
2023-01-26T02:07:39.726Z,2.00
2023-01-26T02:08:39.660Z,2.00
2023-01-26T02:09:39.957Z,2.01
2023-01-26T02:10:39.690Z,2.04
2023-01-26T02:11:39.678Z,2.00
2023-01-26T02:12:39.552Z,2.00
2023-01-26T02:13:39.519Z,2.03
2023-01-26T02:14:39.741Z,2.03
2023-01-26T02:15:39.558Z,2.12
2023-01-26T02:16:39.473Z,2.07
2023-01-26T02:17:39.576Z,2.15
2023-01-26T02:18:39.515Z,2.03
2023-01-26T02:19:39.427Z,2.03
2023-01-26T02:20:39.498Z,2.08
2023-01-26T02:21:39.365Z,2.14
2023-01-26T02:22:39.335Z,2.08
2023-01-26T02:23:39.393Z,2.12
2023-01-26T02:24:39.413Z,2.10
2023-01-26T02:25:39.304Z,2.01
2023-01-26T02:26:39.416Z,2.03
2023-01-26T02:27:39.246Z,2.12
2023-01-26T02:28:39.252Z,2.14
2023-01-26T02:29:39.324Z,2.01
2023-01-26T02:30:39.490Z,2.00
2023-01-26T02:31:39.236Z,1.89
2023-01-26T02:32:39.169Z,1.86
2023-01-26T02:33:39.135Z,1.88
2023-01-26T02:34:39.131Z,1.88
2023-01-26T02:35:39.075Z,2.01
2023-01-26T02:36:39.169Z,1.95
2023-01-26T02:37:39.034Z,2.01
2023-01-26T02:38:39.426Z,2.01
2023-01-26T02:39:38.991Z,1.93
2023-01-26T02:40:38.984Z,1.97
2023-01-26T02:41:39.088Z,2.00
2023-01-26T02:42:38.934Z,2.04
2023-01-26T02:43:38.917Z,2.03
2023-01-26T02:44:38.893Z,1.92
2023-01-26T02:45:38.872Z,1.89
2023-01-26T02:46:38.906Z,1.89
2023-01-26T02:47:38.831Z,1.88
2023-01-26T02:48:38.811Z,1.95
2023-01-26T02:49:39.397Z,1.88
2023-01-26T02:50:38.817Z,1.92
2023-01-26T02:51:38.813Z,1.93
2023-01-26T02:52:38.839Z,1.93
2023-01-26T02:53:38.716Z,1.92
2023-01-26T02:54:38.690Z,1.88
2023-01-26T02:55:38.685Z,1.92
2023-01-26T02:56:38.689Z,1.85
2023-01-26T02:57:38.656Z,1.92
2023-01-26T02:58:38.683Z,1.93
2023-01-26T02:59:38.660Z,1.78
2023-01-26T03:00:38.661Z,1.85
2023-01-26T03:01:38.636Z,1.79
2023-01-26T03:02:38.644Z,1.79
2023-01-26T03:03:38.515Z,1.84
2023-01-26T03:04:38.501Z,1.86
2023-01-26T03:05:38.479Z,1.79
2023-01-26T03:06:38.503Z,1.84
2023-01-26T03:07:38.487Z,1.78
2023-01-26T03:08:38.412Z,1.84
2023-01-26T03:09:38.443Z,1.81
2023-01-26T03:10:38.402Z,1.75
2023-01-26T03:11:38.414Z,1.79
2023-01-26T03:12:38.351Z,1.82
2023-01-26T03:13:38.390Z,1.71
2023-01-26T03:14:38.349Z,1.86
2023-01-26T03:15:38.385Z,1.78
2023-01-26T03:16:38.317Z,1.76
2023-01-26T03:17:38.290Z,1.92
2023-01-26T03:18:38.241Z,1.88
2023-01-26T03:19:38.228Z,1.88
2023-01-26T03:20:38.204Z,1.79
2023-01-26T03:21:38.234Z,1.75
2023-01-26T03:22:38.133Z,1.92
2023-01-26T03:23:38.200Z,1.78
2023-01-26T03:24:38.147Z,1.79
2023-01-26T03:25:38.142Z,1.78
2023-01-26T03:26:38.140Z,1.68
2023-01-26T03:27:38.118Z,1.68
2023-01-26T03:28:38.093Z,1.68
2023-01-26T03:29:38.149Z,1.63
2023-01-26T03:30:38.036Z,1.66
2023-01-26T03:31:38.016Z,1.52
2023-01-26T03:32:37.954Z,1.68
2023-01-26T03:33:37.925Z,1.60
2023-01-26T03:34:37.919Z,1.61
2023-01-26T03:35:37.885Z,1.56
2023-01-26T03:36:37.862Z,1.60
2023-01-26T03:37:37.873Z,1.61
2023-01-26T03:38:37.809Z,1.53
2023-01-26T03:39:37.836Z,1.57
2023-01-26T03:40:37.792Z,1.57
2023-01-26T03:41:37.777Z,1.52
2023-01-26T03:42:37.758Z,1.60
2023-01-26T03:43:37.729Z,1.52
2023-01-26T03:44:37.739Z,1.49
2023-01-26T03:45:37.689Z,1.57
2023-01-26T03:46:37.745Z,1.48
2023-01-26T03:47:37.683Z,1.48
2023-01-26T03:48:37.609Z,1.50
2023-01-26T03:49:37.636Z,1.52
2023-01-26T03:50:37.601Z,1.58
2023-01-26T03:51:37.551Z,1.52
2023-01-26T03:52:37.534Z,1.57
2023-01-26T03:53:37.510Z,1.58
2023-01-26T06:33:00.322Z,0.91
2023-01-26T06:33:59.067Z,0.88
2023-01-26T06:34:59.171Z,0.91
2023-01-26T06:35:59.101Z,0.96
2023-01-26T06:36:59.204Z,0.95
2023-01-26T06:37:58.997Z,1.02
2023-01-26T06:39:00.812Z,1.00
2023-01-26T06:39:58.931Z,1.06
2023-01-26T06:40:59.626Z,0.91
2023-01-26T06:41:59.287Z,0.92
2023-01-26T06:42:59.209Z,1.00
2023-01-26T06:43:59.020Z,1.03
2023-01-26T06:44:59.017Z,1.02
2023-01-26T06:45:59.340Z,0.95
2023-01-26T06:46:58.922Z,0.96
2023-01-26T06:47:59.019Z,0.95
2023-01-26T06:48:59.051Z,0.96
2023-01-26T06:49:58.812Z,1.07
2023-01-26T06:50:58.906Z,1.13
2023-01-26T06:51:59.107Z,1.18
2023-01-26T06:52:58.903Z,1.13
2023-01-26T06:53:58.934Z,1.21
2023-01-26T06:54:58.740Z,1.16
2023-01-26T06:55:58.743Z,1.10
2023-01-26T06:56:58.936Z,1.25
2023-01-26T06:57:58.826Z,1.21
2023-01-26T06:58:58.777Z,1.22
2023-01-26T06:59:58.908Z,1.24
2023-01-26T07:00:58.691Z,1.21
2023-01-26T07:01:58.580Z,1.09
2023-01-26T07:02:58.535Z,1.24
2023-01-26T07:03:58.580Z,1.28
2023-01-26T07:04:58.681Z,1.12
2023-01-26T07:05:58.725Z,1.18
2023-01-26T07:06:58.844Z,1.20
2023-01-26T07:07:58.603Z,1.18
2023-01-26T07:08:58.764Z,1.14
2023-01-26T07:09:58.554Z,1.20
2023-01-26T07:10:58.748Z,1.20
2023-01-26T07:11:58.747Z,1.14
2023-01-26T07:12:58.428Z,1.24
2023-01-26T07:13:58.474Z,1.13
2023-01-26T07:14:58.504Z,1.24
2023-01-26T07:15:58.598Z,1.28
2023-01-26T07:16:58.467Z,1.22
2023-01-26T07:17:58.482Z,1.31
2023-01-26T07:18:58.554Z,1.22
2023-01-26T07:19:58.510Z,1.24
2023-01-26T07:20:58.371Z,1.27
2023-01-26T07:21:58.234Z,1.24
2023-01-26T07:22:58.283Z,1.28
2023-01-26T07:23:58.327Z,1.21
2023-01-26T07:24:58.350Z,1.09
2023-01-26T07:25:58.237Z,1.12
2023-01-26T07:26:58.277Z,1.12
2023-01-26T07:27:58.243Z,1.21
2023-01-26T07:28:58.352Z,1.21
2023-01-26T07:29:58.284Z,1.21
2023-01-26T07:30:58.378Z,1.21
2023-01-26T07:31:58.383Z,1.22
2023-01-26T07:32:58.152Z,1.28
2023-01-26T07:33:58.135Z,1.32
2023-01-26T07:34:58.182Z,1.32
2023-01-26T07:35:58.130Z,1.32
2023-01-26T07:36:58.131Z,1.30
2023-01-26T07:37:58.000Z,1.32
2023-01-26T07:38:58.017Z,1.28
2023-01-26T07:39:57.912Z,1.34
2023-01-26T07:40:57.981Z,1.34
2023-01-26T07:41:57.752Z,1.32
2023-01-26T07:42:57.878Z,1.40
2023-01-26T07:43:57.844Z,1.32
2023-01-26T07:44:57.850Z,1.36
2023-01-26T07:45:57.779Z,1.31
2023-01-26T07:47:08.709Z,1.32
2023-01-26T07:49:02.277Z,1.27
2023-01-26T07:50:02.186Z,1.36
2023-01-26T08:38:55.699Z,1.04
2023-01-26T08:39:55.140Z,1.04
2023-01-26T11:03:58.881Z,1.68
2023-01-26T11:04:58.774Z,1.71
2023-01-26T11:07:03.343Z,1.67
2023-01-26T11:08:03.271Z,1.78
2023-01-26T12:54:34.584Z,1.97
2023-01-26T12:55:33.603Z,1.85
2023-01-26T12:56:33.271Z,1.76
2023-01-26T12:57:33.190Z,1.70
2023-01-26T12:58:33.407Z,1.74
2023-01-26T12:59:46.806Z,1.86
2023-01-26T13:00:33.444Z,1.82
2023-01-26T13:01:33.507Z,1.76
2023-01-26T13:02:33.063Z,1.76
2023-01-26T13:03:33.020Z,1.78
2023-01-26T13:04:32.999Z,1.85
2023-01-26T13:05:32.990Z,1.81
2023-01-26T13:06:32.969Z,1.75
2023-01-26T13:07:32.946Z,1.71
2023-01-26T13:08:32.932Z,1.67
2023-01-26T13:09:32.901Z,1.67
2023-01-26T13:10:32.897Z,1.66
2023-01-26T13:11:32.862Z,1.68
2023-01-26T13:12:32.846Z,1.75
2023-01-26T13:13:32.819Z,1.78
2023-01-26T13:14:32.811Z,1.81
2023-01-26T13:15:32.864Z,1.79
2023-01-26T13:16:32.761Z,1.71
2023-01-26T13:17:32.768Z,1.75
2023-01-26T13:18:32.745Z,1.82
2023-01-26T13:19:32.696Z,1.82
2023-01-26T13:20:32.679Z,1.78
2023-01-26T13:21:32.659Z,1.68
2023-01-26T13:22:32.661Z,1.75
2023-01-26T13:23:32.620Z,1.76
2023-01-26T13:24:32.612Z,1.86
2023-01-26T13:25:32.588Z,1.93
2023-01-26T13:26:32.578Z,1.89
2023-01-26T13:27:32.539Z,2.01
2023-01-26T13:28:32.541Z,2.15
2023-01-26T13:29:32.503Z,2.04
2023-01-26T13:30:32.549Z,2.19
2023-01-26T13:31:32.555Z,2.15
2023-01-26T13:32:32.448Z,2.16
2023-01-26T13:33:32.414Z,2.21
2023-01-26T13:34:32.407Z,2.23
2023-01-26T13:35:32.392Z,2.26
2023-01-26T13:36:32.357Z,2.32
2023-01-26T13:37:32.339Z,2.37
2023-01-26T13:38:32.318Z,2.37
2023-01-26T13:39:32.309Z,2.41
2023-01-26T13:40:32.302Z,2.37
2023-01-26T13:41:32.253Z,2.26
2023-01-26T13:42:32.244Z,2.23
2023-01-26T13:43:32.222Z,2.28
2023-01-26T13:44:32.191Z,2.26
2023-01-26T13:45:32.173Z,2.16
2023-01-26T13:46:32.275Z,2.08
2023-01-26T13:47:32.148Z,2.08
2023-01-26T13:48:34.073Z,2.12
2023-01-26T13:49:32.114Z,2.14
2023-01-26T13:50:32.073Z,2.00
2023-01-26T13:51:32.063Z,2.01
2023-01-26T13:52:39.979Z,1.86
2023-01-26T13:54:37.611Z,1.74
2023-01-26T13:55:37.546Z,1.82
2023-01-26T13:57:43.074Z,1.78
2023-01-26T13:58:43.096Z,1.76
